EZY54ED EGKK-EDDL
Flight info
| Callsign | EZY54ED |
|---|---|
| Flight time | 0h 51m |
| Altitude | 33000 |
| Route | DVR L9 KONAN DCT KOK UL607 SPI Y862 KENUM M170 NVO T857 BIKMU BIKMU1A |
| Aircraft | A320/M-SDE2E3FGHIRWXY/LB1 |
Departure
| Time | 2026-05-07 19:09 |
|---|---|
| Airport | London Gatwick Airport (EGKK) |
Arrival
| Time | 2026-05-07 20:01 |
|---|---|
| Airport | Düsseldorf Airport (EDDL) |
| Time | Latitude | Longitude | Altitude | Speed | Heading |
|---|---|---|---|---|---|
| 2026-05-07 18:26 | 51.16152 | -0.18051 | 214 ft | 0 kts | 77° |
| 2026-05-07 18:50 | 51.16147 | -0.18084 | 211 ft | 4 kts | 77° |
| 2026-05-07 18:51 | 51.16142 | -0.18125 | 208 ft | 2 kts | 77° |
| 2026-05-07 18:51 | 51.16139 | -0.18146 | 208 ft | 4 kts | 89° |
| 2026-05-07 18:51 | 51.16145 | -0.18181 | 211 ft | 4 kts | 143° |
| 2026-05-07 18:51 | 51.16168 | -0.18196 | 212 ft | 4 kts | 168° |
| 2026-05-07 18:52 | 51.16180 | -0.18200 | 216 ft | 0 kts | 167° |
| 2026-05-07 18:57 | 51.16171 | -0.18197 | 205 ft | 4 kts | 167° |
| 2026-05-07 18:57 | 51.16123 | -0.18180 | 213 ft | 10 kts | 167° |
| 2026-05-07 18:57 | 51.16039 | -0.18151 | 211 ft | 14 kts | 167° |
| 2026-05-07 18:58 | 51.15942 | -0.18117 | 210 ft | 15 kts | 167° |
| 2026-05-07 18:58 | 51.15830 | -0.18077 | 205 ft | 17 kts | 167° |
| 2026-05-07 18:58 | 51.15719 | -0.18038 | 210 ft | 9 kts | 168° |
| 2026-05-07 18:58 | 51.15682 | -0.18091 | 207 ft | 7 kts | 257° |
| 2026-05-07 18:59 | 51.15665 | -0.18216 | 205 ft | 19 kts | 257° |
| 2026-05-07 18:59 | 51.15628 | -0.18479 | 213 ft | 24 kts | 253° |
| 2026-05-07 18:59 | 51.15598 | -0.18695 | 209 ft | 19 kts | 257° |
| 2026-05-07 18:59 | 51.15541 | -0.18830 | 209 ft | 14 kts | 184° |
| 2026-05-07 19:00 | 51.15440 | -0.18794 | 211 ft | 16 kts | 167° |
| 2026-05-07 19:00 | 51.15327 | -0.18753 | 212 ft | 18 kts | 167° |
| 2026-05-07 19:00 | 51.15205 | -0.18711 | 205 ft | 17 kts | 168° |
| 2026-05-07 19:00 | 51.15131 | -0.18728 | 206 ft | 9 kts | 247° |
| 2026-05-07 19:01 | 51.15119 | -0.18822 | 205 ft | 9 kts | 257° |
| 2026-05-07 19:01 | 51.15101 | -0.18956 | 211 ft | 15 kts | 259° |
| 2026-05-07 19:01 | 51.15076 | -0.19140 | 205 ft | 17 kts | 257° |
| 2026-05-07 19:01 | 51.15035 | -0.19268 | 208 ft | 11 kts | 202° |
| 2026-05-07 19:02 | 51.14978 | -0.19270 | 208 ft | 6 kts | 198° |
| 2026-05-07 19:02 | 51.14952 | -0.19371 | 210 ft | 18 kts | 259° |
| 2026-05-07 19:02 | 51.14919 | -0.19599 | 209 ft | 22 kts | 257° |
| 2026-05-07 19:02 | 51.14884 | -0.19843 | 212 ft | 24 kts | 257° |
| 2026-05-07 19:03 | 51.14846 | -0.20112 | 204 ft | 26 kts | 257° |
| 2026-05-07 19:03 | 51.14807 | -0.20408 | 206 ft | 28 kts | 258° |
| 2026-05-07 19:03 | 51.14766 | -0.20711 | 211 ft | 29 kts | 258° |
| 2026-05-07 19:03 | 51.14725 | -0.21021 | 215 ft | 24 kts | 258° |
| 2026-05-07 19:04 | 51.14697 | -0.21215 | 212 ft | 6 kts | 258° |
| 2026-05-07 19:04 | 51.14697 | -0.21218 | 211 ft | 0 kts | 258° |
| 2026-05-07 19:05 | 51.14691 | -0.21262 | 208 ft | 9 kts | 258° |
| 2026-05-07 19:05 | 51.14647 | -0.21339 | 205 ft | 9 kts | 188° |
| 2026-05-07 19:05 | 51.14613 | -0.21330 | 210 ft | 0 kts | 166° |
| 2026-05-07 19:07 | 51.14604 | -0.21327 | 205 ft | 6 kts | 166° |
| 2026-05-07 19:07 | 51.14538 | -0.21273 | 214 ft | 11 kts | 123° |
| 2026-05-07 19:07 | 51.14520 | -0.21167 | 206 ft | 10 kts | 87° |
| 2026-05-07 19:08 | 51.14527 | -0.21123 | 212 ft | 0 kts | 74° |
| 2026-05-07 19:08 | 51.14534 | -0.21079 | 207 ft | 21 kts | 76° |
| 2026-05-07 19:08 | 51.14621 | -0.20438 | 211 ft | 94 kts | 78° |
| 2026-05-07 19:08 | 51.14803 | -0.19106 | 216 ft | 150 kts | 77° |
| 2026-05-07 19:09 | 51.15021 | -0.17441 | 723 ft | 153 kts | 79° |
| 2026-05-07 19:09 | 51.15255 | -0.15766 | 1375 ft | 157 kts | 78° |
| 2026-05-07 19:09 | 51.15506 | -0.13970 | 1763 ft | 176 kts | 78° |
| 2026-05-07 19:09 | 51.15789 | -0.11969 | 2158 ft | 195 kts | 78° |
| 2026-05-07 19:10 | 51.16104 | -0.09718 | 2539 ft | 220 kts | 77° |
| 2026-05-07 19:10 | 51.16448 | -0.07216 | 3005 ft | 243 kts | 77° |
| 2026-05-07 19:10 | 51.16826 | -0.04507 | 3682 ft | 256 kts | 79° |
| 2026-05-07 19:10 | 51.16894 | -0.01654 | 4606 ft | 260 kts | 91° |
| 2026-05-07 19:11 | 51.16841 | 0.01243 | 5434 ft | 265 kts | 91° |
| 2026-05-07 19:11 | 51.16784 | 0.04198 | 5792 ft | 267 kts | 92° |
| 2026-05-07 19:11 | 51.16723 | 0.07159 | 5884 ft | 267 kts | 92° |
| 2026-05-07 19:11 | 51.16661 | 0.10113 | 5887 ft | 267 kts | 92° |
| 2026-05-07 19:12 | 51.16600 | 0.13076 | 5872 ft | 267 kts | 92° |
| 2026-05-07 19:12 | 51.16544 | 0.15964 | 5860 ft | 267 kts | 91° |
| 2026-05-07 19:12 | 51.16529 | 0.18946 | 6512 ft | 270 kts | 90° |
| 2026-05-07 19:12 | 51.16539 | 0.21962 | 7359 ft | 275 kts | 90° |
| 2026-05-07 19:13 | 51.16554 | 0.25048 | 8131 ft | 282 kts | 90° |
| 2026-05-07 19:13 | 51.16568 | 0.28205 | 8925 ft | 288 kts | 91° |
| 2026-05-07 19:13 | 51.16557 | 0.31420 | 9733 ft | 294 kts | 91° |
| 2026-05-07 19:13 | 51.16544 | 0.34759 | 10170 ft | 313 kts | 91° |
| 2026-05-07 19:14 | 51.16530 | 0.38345 | 10512 ft | 332 kts | 91° |
| 2026-05-07 19:14 | 51.16518 | 0.42057 | 11180 ft | 338 kts | 91° |
| 2026-05-07 19:14 | 51.16507 | 0.45831 | 11939 ft | 342 kts | 91° |
| 2026-05-07 19:14 | 51.16500 | 0.49643 | 12708 ft | 346 kts | 91° |
| 2026-05-07 19:15 | 51.16497 | 0.53490 | 13483 ft | 349 kts | 91° |
| 2026-05-07 19:15 | 51.16494 | 0.57375 | 14165 ft | 353 kts | 91° |
| 2026-05-07 19:15 | 51.16491 | 0.61299 | 14834 ft | 356 kts | 91° |
| 2026-05-07 19:15 | 51.16484 | 0.65273 | 15500 ft | 361 kts | 91° |
| 2026-05-07 19:16 | 51.16473 | 0.69254 | 16148 ft | 364 kts | 91° |
| 2026-05-07 19:16 | 51.16460 | 0.73348 | 16804 ft | 369 kts | 91° |
| 2026-05-07 19:16 | 51.16443 | 0.77453 | 17459 ft | 373 kts | 91° |
| 2026-05-07 19:16 | 51.16422 | 0.81600 | 18097 ft | 377 kts | 91° |
| 2026-05-07 19:17 | 51.16398 | 0.85801 | 18673 ft | 381 kts | 91° |
| 2026-05-07 19:17 | 51.16374 | 0.90028 | 19245 ft | 384 kts | 91° |
| 2026-05-07 19:17 | 51.16351 | 0.94305 | 19862 ft | 387 kts | 91° |
| 2026-05-07 19:17 | 51.16325 | 0.98610 | 20411 ft | 390 kts | 91° |
| 2026-05-07 19:18 | 51.16293 | 1.02943 | 20961 ft | 394 kts | 91° |
| 2026-05-07 19:18 | 51.16261 | 1.07323 | 21505 ft | 397 kts | 91° |
| 2026-05-07 19:18 | 51.16228 | 1.11739 | 22050 ft | 400 kts | 91° |
| 2026-05-07 19:18 | 51.16195 | 1.16194 | 22589 ft | 404 kts | 91° |
| 2026-05-07 19:19 | 51.16163 | 1.20686 | 23125 ft | 407 kts | 91° |
| 2026-05-07 19:19 | 51.16130 | 1.25216 | 23658 ft | 411 kts | 91° |
| 2026-05-07 19:19 | 51.16097 | 1.29783 | 24087 ft | 414 kts | 91° |
| 2026-05-07 19:19 | 51.16063 | 1.34388 | 24519 ft | 417 kts | 91° |
| 2026-05-07 19:20 | 51.16028 | 1.39011 | 24922 ft | 420 kts | 91° |
| 2026-05-07 19:20 | 51.15991 | 1.43666 | 25048 ft | 420 kts | 91° |
| 2026-05-07 19:20 | 51.15950 | 1.48323 | 25078 ft | 421 kts | 92° |
| 2026-05-07 19:20 | 51.15896 | 1.52996 | 25304 ft | 423 kts | 93° |
| 2026-05-07 19:21 | 51.15741 | 1.57687 | 25741 ft | 425 kts | 95° |
| 2026-05-07 19:21 | 51.15488 | 1.62392 | 26147 ft | 428 kts | 97° |
| 2026-05-07 19:21 | 51.15177 | 1.67109 | 26542 ft | 430 kts | 97° |
| 2026-05-07 19:21 | 51.14845 | 1.71856 | 26932 ft | 432 kts | 97° |
| 2026-05-07 19:22 | 51.14515 | 1.76631 | 27312 ft | 435 kts | 97° |
| 2026-05-07 19:22 | 51.14198 | 1.81437 | 27688 ft | 437 kts | 97° |
| 2026-05-07 19:22 | 51.13892 | 1.86271 | 28003 ft | 440 kts | 97° |
| 2026-05-07 19:22 | 51.13598 | 1.91126 | 28073 ft | 441 kts | 96° |
| 2026-05-07 19:23 | 51.13326 | 1.95990 | 28238 ft | 442 kts | 96° |
| 2026-05-07 19:23 | 51.13084 | 2.00865 | 28513 ft | 444 kts | 95° |
| 2026-05-07 19:23 | 51.12859 | 2.05785 | 28793 ft | 446 kts | 95° |
| 2026-05-07 19:23 | 51.12642 | 2.10714 | 29026 ft | 448 kts | 95° |
| 2026-05-07 19:24 | 51.12423 | 2.15672 | 29196 ft | 450 kts | 95° |
| 2026-05-07 19:24 | 51.12194 | 2.20643 | 29474 ft | 451 kts | 95° |
| 2026-05-07 19:24 | 51.11955 | 2.25630 | 29763 ft | 453 kts | 95° |
| 2026-05-07 19:24 | 51.11710 | 2.30640 | 30049 ft | 455 kts | 95° |
| 2026-05-07 19:25 | 51.11458 | 2.35678 | 30324 ft | 458 kts | 95° |
| 2026-05-07 19:25 | 51.11201 | 2.40730 | 30577 ft | 460 kts | 95° |
| 2026-05-07 19:25 | 51.10941 | 2.45819 | 30828 ft | 462 kts | 95° |
| 2026-05-07 19:25 | 51.10680 | 2.50930 | 31079 ft | 464 kts | 95° |
| 2026-05-07 19:26 | 51.10419 | 2.56062 | 31328 ft | 466 kts | 95° |
| 2026-05-07 19:26 | 51.10157 | 2.61212 | 31583 ft | 468 kts | 95° |
| 2026-05-07 19:26 | 51.09893 | 2.66363 | 31930 ft | 467 kts | 95° |
| 2026-05-07 19:26 | 51.09627 | 2.71503 | 32278 ft | 466 kts | 96° |
| 2026-05-07 19:27 | 51.09357 | 2.76635 | 32621 ft | 465 kts | 96° |
| 2026-05-07 19:27 | 51.09081 | 2.81759 | 32958 ft | 465 kts | 96° |
| 2026-05-07 19:27 | 51.08800 | 2.86876 | 33069 ft | 461 kts | 96° |
| 2026-05-07 19:27 | 51.08529 | 2.91885 | 33081 ft | 450 kts | 96° |
| 2026-05-07 19:28 | 51.07991 | 3.01710 | 33092 ft | 444 kts | 96° |
| 2026-05-07 19:28 | 51.07451 | 3.11406 | 33091 ft | 443 kts | 96° |
| 2026-05-07 19:29 | 51.06899 | 3.21165 | 33080 ft | 443 kts | 96° |
| 2026-05-07 19:29 | 51.06338 | 3.30919 | 33087 ft | 443 kts | 96° |
| 2026-05-07 19:30 | 51.05775 | 3.40670 | 33072 ft | 443 kts | 96° |
| 2026-05-07 19:30 | 51.05205 | 3.50411 | 33074 ft | 442 kts | 96° |
| 2026-05-07 19:31 | 51.04622 | 3.60132 | 33074 ft | 442 kts | 96° |
| 2026-05-07 19:31 | 51.04023 | 3.69851 | 33078 ft | 442 kts | 96° |
| 2026-05-07 19:32 | 51.03422 | 3.79568 | 33078 ft | 442 kts | 96° |
| 2026-05-07 19:32 | 51.02816 | 3.89277 | 33081 ft | 441 kts | 96° |
| 2026-05-07 19:33 | 51.02201 | 3.98971 | 33080 ft | 441 kts | 97° |
| 2026-05-07 19:33 | 51.01580 | 4.08655 | 33087 ft | 441 kts | 97° |
| 2026-05-07 19:34 | 51.00961 | 4.18333 | 33082 ft | 441 kts | 97° |
| 2026-05-07 19:34 | 51.00324 | 4.28009 | 33079 ft | 441 kts | 97° |
| 2026-05-07 19:35 | 50.99670 | 4.37685 | 33074 ft | 440 kts | 97° |
| 2026-05-07 19:35 | 50.99127 | 4.45735 | 33073 ft | 440 kts | 97° |
| 2026-05-07 19:36 | 50.98366 | 4.56972 | 33072 ft | 440 kts | 97° |
| 2026-05-07 19:36 | 50.97808 | 4.65065 | 33086 ft | 440 kts | 97° |
| 2026-05-07 19:37 | 50.97123 | 4.74718 | 33078 ft | 440 kts | 97° |
| 2026-05-07 19:37 | 50.96438 | 4.84376 | 33085 ft | 440 kts | 97° |
| 2026-05-07 19:38 | 50.95756 | 4.94008 | 33088 ft | 440 kts | 97° |
| 2026-05-07 19:38 | 50.95053 | 5.03801 | 33088 ft | 455 kts | 97° |
| 2026-05-07 19:39 | 50.94319 | 5.13766 | 33089 ft | 460 kts | 97° |
| 2026-05-07 19:39 | 50.93571 | 5.23891 | 33089 ft | 459 kts | 97° |
| 2026-05-07 19:40 | 50.92825 | 5.33874 | 33086 ft | 459 kts | 98° |
| 2026-05-07 19:40 | 50.92059 | 5.43916 | 33086 ft | 459 kts | 98° |
| 2026-05-07 19:41 | 50.91278 | 5.53933 | 32972 ft | 454 kts | 98° |
| 2026-05-07 19:41 | 50.90892 | 5.58873 | 32431 ft | 449 kts | 98° |
| 2026-05-07 19:41 | 50.90512 | 5.63754 | 31903 ft | 444 kts | 98° |
| 2026-05-07 19:42 | 50.90138 | 5.68589 | 31381 ft | 440 kts | 98° |
| 2026-05-07 19:42 | 50.89766 | 5.73377 | 30871 ft | 436 kts | 98° |
| 2026-05-07 19:42 | 50.89393 | 5.78120 | 30374 ft | 432 kts | 98° |
| 2026-05-07 19:42 | 50.89020 | 5.82816 | 29836 ft | 428 kts | 98° |
| 2026-05-07 19:43 | 50.88648 | 5.87483 | 29257 ft | 425 kts | 98° |
| 2026-05-07 19:43 | 50.88279 | 5.92108 | 28695 ft | 421 kts | 98° |
| 2026-05-07 19:43 | 50.87906 | 5.96695 | 28145 ft | 418 kts | 98° |
| 2026-05-07 19:43 | 50.87533 | 6.01234 | 27605 ft | 415 kts | 98° |
| 2026-05-07 19:44 | 50.87161 | 6.05759 | 27072 ft | 412 kts | 98° |
| 2026-05-07 19:44 | 50.86792 | 6.10240 | 26549 ft | 410 kts | 98° |
| 2026-05-07 19:44 | 50.86423 | 6.14697 | 26015 ft | 408 kts | 98° |
| 2026-05-07 19:44 | 50.86053 | 6.19151 | 25384 ft | 409 kts | 98° |
| 2026-05-07 19:45 | 50.85681 | 6.23614 | 24769 ft | 409 kts | 98° |
| 2026-05-07 19:45 | 50.85314 | 6.28000 | 24512 ft | 390 kts | 98° |
| 2026-05-07 19:45 | 50.84969 | 6.32154 | 24137 ft | 374 kts | 98° |
| 2026-05-07 19:45 | 50.84632 | 6.36184 | 23506 ft | 366 kts | 98° |
| 2026-05-07 19:46 | 50.84296 | 6.40143 | 22729 ft | 361 kts | 98° |
| 2026-05-07 19:46 | 50.83960 | 6.44055 | 21977 ft | 357 kts | 98° |
| 2026-05-07 19:46 | 50.83624 | 6.47917 | 21252 ft | 352 kts | 98° |
| 2026-05-07 19:46 | 50.83293 | 6.51732 | 20549 ft | 348 kts | 98° |
| 2026-05-07 19:47 | 50.82981 | 6.55510 | 19866 ft | 344 kts | 95° |
| 2026-05-07 19:47 | 50.83238 | 6.59206 | 19225 ft | 338 kts | 69° |
| 2026-05-07 19:47 | 50.84442 | 6.62334 | 18571 ft | 332 kts | 43° |
| 2026-05-07 19:47 | 50.86332 | 6.64310 | 17849 ft | 325 kts | 17° |
| 2026-05-07 19:48 | 50.88522 | 6.65026 | 17081 ft | 321 kts | 6° |
| 2026-05-07 19:48 | 50.90732 | 6.65500 | 16359 ft | 320 kts | 6° |
| 2026-05-07 19:48 | 50.92945 | 6.65962 | 15923 ft | 320 kts | 6° |
| 2026-05-07 19:48 | 50.95117 | 6.66415 | 15590 ft | 318 kts | 6° |
| 2026-05-07 19:49 | 50.97304 | 6.66878 | 15244 ft | 316 kts | 6° |
| 2026-05-07 19:49 | 50.99483 | 6.66981 | 14902 ft | 311 kts | 348° |
| 2026-05-07 19:49 | 51.01468 | 6.65758 | 14563 ft | 305 kts | 323° |
| 2026-05-07 19:49 | 51.02932 | 6.63368 | 14107 ft | 304 kts | 299° |
| 2026-05-07 19:50 | 51.03711 | 6.60257 | 13605 ft | 305 kts | 284° |
| 2026-05-07 19:50 | 51.04272 | 6.56991 | 13072 ft | 308 kts | 283° |
| 2026-05-07 19:50 | 51.04811 | 6.53692 | 12546 ft | 310 kts | 283° |
| 2026-05-07 19:50 | 51.05346 | 6.50370 | 12129 ft | 309 kts | 283° |
| 2026-05-07 19:51 | 51.05871 | 6.47075 | 11747 ft | 307 kts | 283° |
| 2026-05-07 19:51 | 51.06380 | 6.43848 | 11386 ft | 294 kts | 283° |
| 2026-05-07 19:51 | 51.06869 | 6.40736 | 10842 ft | 287 kts | 283° |
| 2026-05-07 19:51 | 51.07344 | 6.37670 | 10232 ft | 284 kts | 283° |
| 2026-05-07 19:52 | 51.07808 | 6.34638 | 9577 ft | 281 kts | 283° |
| 2026-05-07 19:52 | 51.08269 | 6.31632 | 8929 ft | 277 kts | 286° |
| 2026-05-07 19:52 | 51.09052 | 6.28973 | 8611 ft | 261 kts | 306° |
| 2026-05-07 19:52 | 51.10347 | 6.27054 | 8236 ft | 249 kts | 328° |
| 2026-05-07 19:53 | 51.11921 | 6.26047 | 7773 ft | 243 kts | 349° |
| 2026-05-07 19:53 | 51.13593 | 6.26007 | 7235 ft | 240 kts | 11° |
| 2026-05-07 19:53 | 51.15150 | 6.26906 | 6696 ft | 238 kts | 31° |
| 2026-05-07 19:53 | 51.16404 | 6.28595 | 6143 ft | 236 kts | 51° |
| 2026-05-07 19:54 | 51.17210 | 6.30845 | 5587 ft | 234 kts | 71° |
| 2026-05-07 19:54 | 51.17512 | 6.33375 | 5035 ft | 232 kts | 83° |
| 2026-05-07 19:54 | 51.17688 | 6.35940 | 4666 ft | 232 kts | 83° |
| 2026-05-07 19:54 | 51.17865 | 6.38490 | 4329 ft | 230 kts | 83° |
| 2026-05-07 19:55 | 51.18040 | 6.40982 | 3984 ft | 229 kts | 83° |
| 2026-05-07 19:55 | 51.18217 | 6.43488 | 3651 ft | 227 kts | 83° |
| 2026-05-07 19:55 | 51.18392 | 6.45971 | 3401 ft | 222 kts | 83° |
| 2026-05-07 19:55 | 51.18556 | 6.48324 | 3263 ft | 204 kts | 83° |
| 2026-05-07 19:56 | 51.18709 | 6.50513 | 3157 ft | 194 kts | 83° |
| 2026-05-07 19:56 | 51.18855 | 6.52609 | 3070 ft | 187 kts | 83° |
| 2026-05-07 19:56 | 51.18998 | 6.54659 | 3011 ft | 184 kts | 83° |
| 2026-05-07 19:56 | 51.19227 | 6.56652 | 3032 ft | 183 kts | 68° |
| 2026-05-07 19:57 | 51.19889 | 6.58383 | 2823 ft | 183 kts | 52° |
| 2026-05-07 19:57 | 51.20663 | 6.59972 | 2572 ft | 179 kts | 52° |
| 2026-05-07 19:57 | 51.21410 | 6.61515 | 2341 ft | 170 kts | 53° |
| 2026-05-07 19:57 | 51.22105 | 6.62960 | 2109 ft | 159 kts | 53° |
| 2026-05-07 19:58 | 51.22753 | 6.64309 | 1898 ft | 147 kts | 53° |
| 2026-05-07 19:58 | 51.23358 | 6.65573 | 1712 ft | 140 kts | 53° |
| 2026-05-07 19:58 | 51.23941 | 6.66789 | 1532 ft | 136 kts | 53° |
| 2026-05-07 19:58 | 51.24511 | 6.67980 | 1342 ft | 135 kts | 53° |
| 2026-05-07 19:59 | 51.25081 | 6.69172 | 1159 ft | 135 kts | 54° |
| 2026-05-07 19:59 | 51.25649 | 6.70359 | 968 ft | 134 kts | 54° |
| 2026-05-07 19:59 | 51.26211 | 6.71545 | 763 ft | 134 kts | 54° |
| 2026-05-07 19:59 | 51.26769 | 6.72722 | 580 ft | 132 kts | 53° |
| 2026-05-07 20:00 | 51.27327 | 6.73884 | 414 ft | 132 kts | 53° |
| 2026-05-07 20:00 | 51.27882 | 6.75047 | 246 ft | 132 kts | 52° |
| 2026-05-07 20:00 | 51.28427 | 6.76177 | 132 ft | 116 kts | 52° |
| 2026-05-07 20:00 | 51.28803 | 6.76968 | 134 ft | 68 kts | 52° |
| 2026-05-07 20:01 | 51.29017 | 6.77415 | 131 ft | 19 kts | 55° |
| 2026-05-07 20:01 | 51.29013 | 6.77558 | 134 ft | 8 kts | 122° |
| 2026-05-07 20:01 | 51.28984 | 6.77598 | 135 ft | 3 kts | 144° |
| 2026-05-07 20:01 | 51.28971 | 6.77612 | 136 ft | 3 kts | 145° |
| 2026-05-07 20:02 | 51.28938 | 6.77649 | 136 ft | 7 kts | 150° |
| 2026-05-07 20:02 | 51.28883 | 6.77604 | 136 ft | 12 kts | 233° |
| 2026-05-07 20:02 | 51.28819 | 6.77470 | 136 ft | 19 kts | 233° |
| 2026-05-07 20:02 | 51.28734 | 6.77292 | 137 ft | 20 kts | 232° |
| 2026-05-07 20:03 | 51.28651 | 6.77117 | 137 ft | 14 kts | 234° |
| 2026-05-07 20:03 | 51.28598 | 6.77008 | 137 ft | 11 kts | 230° |
| 2026-05-07 20:03 | 51.28551 | 6.76914 | 137 ft | 10 kts | 233° |
| 2026-05-07 20:03 | 51.28510 | 6.76827 | 137 ft | 9 kts | 233° |
| 2026-05-07 20:04 | 51.28473 | 6.76748 | 137 ft | 8 kts | 234° |
| 2026-05-07 20:04 | 51.28441 | 6.76674 | 137 ft | 8 kts | 234° |
| 2026-05-07 20:04 | 51.28410 | 6.76607 | 137 ft | 7 kts | 233° |
| 2026-05-07 20:04 | 51.28382 | 6.76548 | 137 ft | 6 kts | 232° |
| 2026-05-07 20:05 | 51.28355 | 6.76498 | 137 ft | 6 kts | 220° |
| 2026-05-07 20:05 | 51.28310 | 6.76492 | 137 ft | 7 kts | 149° |
| 2026-05-07 20:05 | 51.28258 | 6.76478 | 137 ft | 10 kts | 228° |
| 2026-05-07 20:05 | 51.28210 | 6.76378 | 137 ft | 13 kts | 233° |
| 2026-05-07 20:06 | 51.28152 | 6.76255 | 137 ft | 15 kts | 233° |
| 2026-05-07 20:06 | 51.28108 | 6.76180 | 137 ft | 8 kts | 201° |
| 2026-05-07 20:06 | 51.28069 | 6.76204 | 137 ft | 6 kts | 146° |
| 2026-05-07 20:06 | 51.28046 | 6.76217 | 137 ft | 0 kts | 163° |
| 2026-05-07 20:07 | 51.28037 | 6.76221 | 137 ft | 3 kts | 164° |
| 2026-05-07 20:07 | 51.28034 | 6.76223 | 137 ft | 0 kts | 164° |